createdAt,value
2018-07-28T00:00:12.928Z,49.40
2018-07-28T00:02:42.592Z,49.00
2018-07-28T00:05:13.027Z,50.00
2018-07-28T00:07:42.926Z,49.10
2018-07-28T00:12:50.937Z,49.40
2018-07-28T00:15:20.541Z,49.30
2018-07-28T00:17:58.609Z,49.60
2018-07-28T00:20:28.629Z,49.60
2018-07-28T00:23:03.696Z,49.60
2018-07-28T00:25:38.203Z,49.90
2018-07-28T00:28:08.520Z,49.80
2018-07-28T00:30:38.055Z,49.50
2018-07-28T00:33:16.439Z,49.90
2018-07-28T00:35:50.988Z,50.10
2018-07-28T00:38:20.859Z,50.00
2018-07-28T00:40:50.450Z,50.20
2018-07-28T00:43:27.135Z,50.40
2018-07-28T00:45:57.283Z,50.20
2018-07-28T00:48:27.011Z,50.90
2018-07-28T00:51:04.466Z,52.20
2018-07-28T00:53:38.704Z,51.00
2018-07-28T00:56:15.221Z,51.10
2018-07-28T01:01:14.831Z,51.20
2018-07-28T01:03:44.451Z,51.30
2018-07-28T01:06:14.510Z,51.30
2018-07-28T01:08:44.085Z,51.70
2018-07-28T01:11:13.639Z,52.30
2018-07-28T01:13:43.534Z,52.20
2018-07-28T01:16:13.090Z,52.30
2018-07-28T01:18:48.914Z,52.70
2018-07-28T01:21:18.817Z,52.70
2018-07-28T01:23:48.495Z,52.70
2018-07-28T01:26:18.093Z,52.80
2018-07-28T01:28:54.614Z,52.90
2018-07-28T01:31:24.295Z,52.60
2018-07-28T01:33:54.151Z,52.40
2018-07-28T01:36:23.681Z,52.20
2018-07-28T01:38:54.083Z,52.30
2018-07-28T01:41:25.876Z,52.40
2018-07-28T01:44:02.170Z,52.40
2018-07-28T01:46:37.398Z,52.30
2018-07-28T01:49:07.418Z,52.40
2018-07-28T01:51:43.968Z,52.40
2018-07-28T01:56:58.132Z,52.70
2018-07-28T01:59:27.655Z,53.00
2018-07-28T02:01:57.239Z,53.00
2018-07-28T02:04:36.154Z,53.00
2018-07-28T02:07:10.660Z,53.10
2018-07-28T02:09:46.172Z,53.00
2018-07-28T02:12:16.505Z,53.50
2018-07-28T02:14:52.868Z,54.70
2018-07-28T02:17:27.243Z,55.10
2018-07-28T02:20:03.498Z,56.30
2018-07-28T02:22:33.295Z,55.90
2018-07-28T02:25:02.823Z,56.50
2018-07-28T02:27:39.258Z,56.90
2018-07-28T02:30:09.111Z,56.70
2018-07-28T02:32:38.640Z,58.10
2018-07-28T02:37:47.494Z,58.10
2018-07-28T02:40:17.147Z,58.50
2018-07-28T02:42:51.972Z,57.90
2018-07-28T02:45:21.941Z,57.30
2018-07-28T02:47:51.484Z,58.10
2018-07-28T02:50:27.814Z,58.50
2018-07-28T02:52:57.781Z,58.90
2018-07-28T02:55:34.184Z,58.80
2018-07-28T02:58:09.064Z,59.90
2018-07-28T03:00:39.345Z,59.00
2018-07-28T03:03:14.822Z,59.50
2018-07-28T03:05:44.637Z,58.40
2018-07-28T03:08:20.922Z,58.40
2018-07-28T03:13:24.895Z,60.00
2018-07-28T03:15:54.441Z,57.20
2018-07-28T03:18:24.041Z,56.20
2018-07-28T03:20:54.007Z,57.80
2018-07-28T03:23:23.616Z,57.80
2018-07-28T03:25:53.196Z,56.90
2018-07-28T03:28:23.036Z,56.70
2018-07-28T03:30:52.547Z,57.60
2018-07-28T03:33:22.050Z,57.60
2018-07-28T03:35:51.966Z,55.80
2018-07-28T03:38:21.700Z,56.10
2018-07-28T03:40:51.593Z,57.60
2018-07-28T03:43:22.099Z,57.70
2018-07-28T03:45:51.675Z,57.70
2018-07-28T03:48:21.257Z,58.00
2018-07-28T03:50:51.136Z,58.60
2018-07-28T03:53:35.383Z,58.60
2018-07-28T03:56:05.314Z,58.90
2018-07-28T03:58:39.311Z,59.30
2018-07-28T04:01:15.298Z,59.70
2018-07-28T04:03:44.895Z,60.10
2018-07-28T04:06:14.597Z,59.70
2018-07-28T04:08:44.659Z,60.70
2018-07-28T04:11:21.345Z,60.50
2018-07-28T04:13:51.285Z,61.30
2018-07-28T04:16:21.071Z,61.30
2018-07-28T04:18:50.618Z,61.30
2018-07-28T04:21:33.350Z,62.30
2018-07-28T04:24:08.604Z,63.30
2018-07-28T04:26:44.173Z,63.30
2018-07-28T04:29:13.789Z,63.80
2018-07-28T04:31:50.133Z,64.30
2018-07-28T04:34:20.108Z,64.60
2018-07-28T04:36:57.652Z,63.50
2018-07-28T04:39:27.201Z,65.40
2018-07-28T04:41:56.714Z,65.60
2018-07-28T04:44:32.870Z,65.20
2018-07-28T04:47:03.701Z,66.60
2018-07-28T04:49:34.209Z,65.10
2018-07-28T04:52:03.829Z,67.60
2018-07-28T04:54:33.360Z,66.40
2018-07-28T04:57:03.219Z,65.40
2018-07-28T04:59:39.867Z,65.20
2018-07-28T05:02:16.285Z,66.60
2018-07-28T05:04:45.811Z,67.40
2018-07-28T05:07:15.739Z,66.80
2018-07-28T05:09:45.364Z,66.60
2018-07-28T05:12:14.934Z,65.40
2018-07-28T05:14:44.780Z,65.20
2018-07-28T05:17:14.414Z,64.30
2018-07-28T05:19:43.984Z,64.50
2018-07-28T05:22:13.911Z,64.30
2018-07-28T05:24:49.151Z,64.40
2018-07-28T05:27:18.765Z,64.70
2018-07-28T05:29:48.331Z,65.40
2018-07-28T05:32:17.943Z,65.40
2018-07-28T05:34:57.126Z,65.30
2018-07-28T05:40:09.947Z,66.30
2018-07-28T05:42:39.707Z,66.30
2018-07-28T05:45:09.219Z,65.80
2018-07-28T05:47:39.008Z,65.70
2018-07-28T05:50:09.720Z,65.70
2018-07-28T05:52:44.525Z,67.60
2018-07-28T05:55:14.504Z,68.20
2018-07-28T05:57:46.415Z,67.40
2018-07-28T06:00:32.606Z,68.20
2018-07-28T06:03:05.468Z,68.00
2018-07-28T06:05:41.377Z,71.00
2018-07-28T06:08:10.944Z,70.00
2018-07-28T06:10:47.020Z,70.90
2018-07-28T06:13:16.564Z,70.70
2018-07-28T06:15:53.372Z,71.90
2018-07-28T06:18:28.013Z,71.40
2018-07-28T06:20:57.627Z,71.70
2018-07-28T06:23:28.274Z,71.20
2018-07-28T06:25:58.154Z,71.00
2018-07-28T06:28:35.424Z,71.70
2018-07-28T06:31:10.699Z,71.70
2018-07-28T06:33:45.825Z,73.40
2018-07-28T06:36:15.864Z,73.60
2018-07-28T06:38:52.282Z,74.40
2018-07-28T06:41:26.902Z,74.30
2018-07-28T06:43:56.475Z,74.20
2018-07-28T06:46:26.191Z,75.50
2018-07-28T06:48:55.893Z,75.30
2018-07-28T06:51:39.031Z,75.90
2018-07-28T06:54:08.775Z,74.00
2018-07-28T06:56:38.755Z,74.20
2018-07-28T06:59:15.201Z,74.90
2018-07-28T07:01:45.866Z,74.80
2018-07-28T07:04:15.477Z,74.30
2018-07-28T07:06:51.866Z,75.40
2018-07-28T07:09:21.541Z,74.50
2018-07-28T07:11:51.167Z,75.00
2018-07-28T07:14:20.866Z,73.80
2018-07-28T07:16:50.826Z,72.80
2018-07-28T07:19:20.496Z,73.20
2018-07-28T07:21:58.687Z,72.70
2018-07-28T07:24:28.590Z,71.80
2018-07-28T07:26:58.353Z,72.00
2018-07-28T07:29:38.917Z,70.90
2018-07-28T07:32:08.951Z,70.70
2018-07-28T07:34:38.440Z,70.80
2018-07-28T07:37:09.231Z,70.40
2018-07-28T07:39:55.379Z,69.60
2018-07-28T07:42:36.720Z,70.00
2018-07-28T07:45:15.707Z,69.30
2018-07-28T07:47:57.191Z,70.50
2018-07-28T07:50:33.984Z,70.40
2018-07-28T07:53:03.499Z,69.50
2018-07-28T07:55:40.023Z,70.80
2018-07-28T07:58:09.579Z,72.00
2018-07-28T08:00:46.116Z,70.70
2018-07-28T08:03:15.873Z,71.90
2018-07-28T08:05:45.558Z,69.80
2018-07-28T08:08:15.277Z,70.60
2018-07-28T08:10:45.027Z,70.90
2018-07-28T08:13:27.968Z,69.40
2018-07-28T08:15:57.876Z,69.30
2018-07-28T08:18:27.483Z,69.00
2018-07-28T08:21:04.291Z,69.00
2018-07-28T08:23:39.909Z,68.60
2018-07-28T08:26:09.738Z,68.40
2018-07-28T08:28:39.499Z,68.70
2018-07-28T08:31:15.032Z,69.50
2018-07-28T08:33:44.937Z,69.80
2018-07-28T08:36:14.576Z,69.40
2018-07-28T08:38:44.136Z,70.00
2018-07-28T08:41:14.061Z,69.00
2018-07-28T08:43:43.763Z,69.40
2018-07-28T08:46:13.785Z,69.40
2018-07-28T08:48:44.032Z,67.50
2018-07-28T08:51:14.129Z,67.30
2018-07-28T08:53:43.639Z,67.80
2018-07-28T08:56:13.496Z,69.30
2018-07-28T08:58:50.482Z,67.40
2018-07-28T09:01:20.136Z,67.80
2018-07-28T09:03:55.531Z,66.50
2018-07-28T09:06:25.139Z,66.70
2018-07-28T09:08:54.956Z,66.50
2018-07-28T09:11:24.448Z,68.00
2018-07-28T09:13:54.052Z,66.90
2018-07-28T09:16:24.354Z,65.80
2018-07-28T09:18:54.077Z,65.80
2018-07-28T09:21:23.603Z,67.50
2018-07-28T09:23:59.065Z,67.50
2018-07-28T09:26:28.788Z,68.00
2018-07-28T09:28:58.439Z,67.30
2018-07-28T09:31:27.985Z,66.30
2018-07-28T09:33:57.634Z,65.30
2018-07-28T09:36:44.680Z,64.40
2018-07-28T09:39:14.274Z,64.60
2018-07-28T09:41:44.092Z,65.90
2018-07-28T09:44:15.243Z,65.20
2018-07-28T09:46:44.808Z,63.20
2018-07-28T09:49:14.379Z,63.70
2018-07-28T09:51:43.979Z,64.30
2018-07-28T09:54:13.871Z,63.10
2018-07-28T09:56:43.538Z,64.50
2018-07-28T09:59:13.045Z,63.40
2018-07-28T10:01:55.675Z,63.90
2018-07-28T10:04:25.260Z,62.60
2018-07-28T10:06:55.177Z,64.10
2018-07-28T10:09:24.861Z,64.00
2018-07-28T10:11:54.426Z,64.00
2018-07-28T10:14:24.309Z,61.20
2018-07-28T10:16:53.847Z,62.20
2018-07-28T10:19:23.440Z,61.30
2018-07-28T10:21:53.425Z,61.20
2018-07-28T10:24:22.954Z,61.50
2018-07-28T10:26:52.445Z,62.50
2018-07-28T10:29:22.441Z,61.40
2018-07-28T10:31:51.955Z,59.70
2018-07-28T10:34:21.639Z,59.50
2018-07-28T10:36:51.421Z,60.20
2018-07-28T10:39:27.175Z,59.60
2018-07-28T10:41:56.964Z,60.50
2018-07-28T10:44:26.783Z,59.90
2018-07-28T10:46:56.944Z,60.00
2018-07-28T10:49:34.771Z,59.90
2018-07-28T10:52:04.555Z,59.80
2018-07-28T10:54:34.497Z,60.00
2018-07-28T10:57:06.645Z,59.90
2018-07-28T10:59:36.623Z,60.20
2018-07-28T11:02:06.731Z,60.00
2018-07-28T11:04:43.588Z,59.90
2018-07-28T11:07:13.511Z,59.60
2018-07-28T11:09:56.850Z,59.60
2018-07-28T11:12:26.754Z,59.70
2018-07-28T11:14:56.421Z,59.80
2018-07-28T11:17:26.021Z,60.10
2018-07-28T11:19:56.023Z,61.30
2018-07-28T11:22:25.599Z,62.10
2018-07-28T11:24:55.379Z,61.90
2018-07-28T11:27:25.333Z,62.60
2018-07-28T11:29:55.136Z,63.10
2018-07-28T11:32:35.369Z,63.70
2018-07-28T11:35:15.925Z,65.00
2018-07-28T11:38:05.616Z,65.80
2018-07-28T11:40:47.557Z,66.70
2018-07-28T11:43:27.913Z,67.90
2018-07-28T11:45:57.997Z,68.80
2018-07-28T11:48:27.667Z,72.10
2018-07-28T11:50:57.449Z,72.40
2018-07-28T11:53:34.941Z,69.30
2018-07-28T11:56:05.238Z,69.10
2018-07-28T11:58:35.848Z,69.70
2018-07-28T12:01:06.207Z,68.60
2018-07-28T12:03:36.299Z,67.10
2018-07-28T12:06:07.247Z,64.50
2018-07-28T12:08:36.880Z,64.70
2018-07-28T12:11:07.238Z,63.90
2018-07-28T12:13:37.313Z,63.80
2018-07-28T12:16:07.901Z,63.70
2018-07-28T12:18:37.796Z,64.10
2018-07-28T12:21:07.917Z,63.40
2018-07-28T12:23:37.483Z,62.70
2018-07-28T12:26:07.220Z,62.40
2018-07-28T12:28:37.333Z,62.20
2018-07-28T12:31:06.935Z,61.40
2018-07-28T12:33:52.678Z,59.80
2018-07-28T12:36:22.261Z,60.80
2018-07-28T12:38:51.822Z,61.50
2018-07-28T12:41:21.901Z,61.60
2018-07-28T12:43:51.697Z,60.70
2018-07-28T12:46:21.295Z,65.90
2018-07-28T12:48:51.248Z,76.30
2018-07-28T12:51:20.756Z,78.40
2018-07-28T12:53:50.272Z,83.00
2018-07-28T12:56:20.245Z,88.20
2018-07-28T12:58:49.782Z,91.30
2018-07-28T13:01:19.331Z,90.90
2018-07-28T13:03:49.346Z,91.10
2018-07-28T13:06:20.901Z,92.40
2018-07-28T13:08:50.447Z,92.30
2018-07-28T13:11:20.404Z,92.10
2018-07-28T13:13:49.947Z,93.30
2018-07-28T13:16:20.087Z,93.50
2018-07-28T13:18:57.579Z,94.80
2018-07-28T13:21:27.238Z,95.20
2018-07-28T13:23:58.357Z,96.70
2018-07-28T13:26:28.173Z,97.10
2018-07-28T13:29:08.797Z,96.70
2018-07-28T13:31:38.688Z,96.20
2018-07-28T13:34:08.288Z,96.70
2018-07-28T13:36:38.066Z,96.50
2018-07-28T13:39:17.548Z,97.00
2018-07-28T13:41:47.225Z,97.80
2018-07-28T13:44:16.843Z,98.90
2018-07-28T13:46:46.573Z,99.00
2018-07-28T13:49:16.216Z,99.00
2018-07-28T13:51:46.208Z,99.10
2018-07-28T13:54:33.277Z,99.50
2018-07-28T13:57:03.305Z,99.00
2018-07-28T13:59:37.314Z,98.70
2018-07-28T14:02:06.919Z,99.10
2018-07-28T14:04:50.693Z,99.40
2018-07-28T14:07:20.347Z,98.60
2018-07-28T14:09:50.324Z,98.40
2018-07-28T14:12:20.535Z,98.30
2018-07-28T14:14:50.152Z,98.60
2018-07-28T14:17:20.705Z,98.80
2018-07-28T14:19:50.383Z,98.40
2018-07-28T14:22:19.881Z,98.50
2018-07-28T14:25:04.184Z,99.00
2018-07-28T14:30:17.236Z,97.80
2018-07-28T14:32:46.962Z,97.40
2018-07-28T14:35:16.561Z,96.00
2018-07-28T14:37:46.623Z,93.70
2018-07-28T14:40:17.168Z,93.60
2018-07-28T14:42:51.060Z,93.90
2018-07-28T14:45:21.176Z,94.10
2018-07-28T14:47:51.461Z,94.40
2018-07-28T14:50:21.071Z,94.20
2018-07-28T14:52:51.364Z,94.20
2018-07-28T14:55:21.559Z,94.30
2018-07-28T14:57:51.181Z,94.50
2018-07-28T15:00:21.120Z,95.00
2018-07-28T15:02:50.917Z,95.40
2018-07-28T15:05:21.243Z,94.80
2018-07-28T15:07:51.144Z,94.10
2018-07-28T15:10:20.828Z,94.00
2018-07-28T15:12:50.528Z,94.20
2018-07-28T15:15:20.855Z,93.90
2018-07-28T15:17:51.448Z,94.10
2018-07-28T15:20:21.087Z,94.30
2018-07-28T15:22:50.797Z,94.80
2018-07-28T15:25:20.511Z,94.60
2018-07-28T15:27:50.474Z,95.00
2018-07-28T15:30:25.151Z,94.30
2018-07-28T15:32:54.714Z,95.00
2018-07-28T15:35:24.267Z,95.60
2018-07-28T15:37:53.823Z,95.30
2018-07-28T15:40:23.384Z,93.30
2018-07-28T15:42:52.976Z,93.60
2018-07-28T15:45:22.786Z,93.70
2018-07-28T15:47:53.447Z,94.50
2018-07-28T15:50:28.198Z,92.60
2018-07-28T15:53:03.681Z,92.30
2018-07-28T15:55:33.272Z,92.30
2018-07-28T15:58:02.853Z,92.50
2018-07-28T16:00:32.719Z,92.20
2018-07-28T16:03:02.360Z,90.00
2018-07-28T16:05:31.956Z,90.80
2018-07-28T18:46:16.026Z,72.70
2018-07-28T18:48:46.344Z,73.70
2018-07-28T18:51:16.259Z,73.00
2018-07-28T18:53:45.954Z,72.20
2018-07-28T18:56:27.784Z,73.60
2018-07-28T19:07:45.105Z,72.10
2018-07-28T19:10:14.835Z,73.00
2018-07-28T19:12:49.839Z,72.50
2018-07-28T19:15:19.477Z,72.50
2018-07-28T19:18:06.106Z,71.80
2018-07-28T19:20:35.846Z,71.10
2018-07-28T19:23:11.280Z,72.00
2018-07-28T19:25:40.943Z,73.20
2018-07-28T19:30:49.428Z,71.80
2018-07-28T19:33:19.503Z,71.60
2018-07-28T19:35:54.108Z,72.00
2018-07-28T19:38:24.266Z,71.50
2018-07-28T19:40:53.903Z,71.80
2018-07-28T19:43:32.340Z,73.20
2018-07-28T19:46:02.210Z,71.90
2018-07-28T19:48:32.073Z,72.90
2018-07-28T19:51:01.809Z,73.70
2018-07-28T19:53:31.852Z,73.30
2018-07-28T19:56:01.382Z,73.10
2018-07-28T19:58:43.168Z,71.30
2018-07-28T20:01:12.733Z,72.70
2018-07-28T20:03:42.379Z,71.80
2018-07-28T20:06:21.311Z,72.30
2018-07-28T20:08:50.979Z,70.90
2018-07-28T20:11:21.915Z,70.90
2018-07-28T20:13:51.561Z,70.10
2018-07-28T20:16:26.500Z,72.40
2018-07-28T20:18:56.591Z,72.40
2018-07-28T20:21:26.304Z,72.80
2018-07-28T20:23:56.117Z,71.60
2018-07-28T20:26:32.950Z,71.70
2018-07-28T20:29:02.741Z,72.80
2018-07-28T20:31:32.512Z,73.00
2018-07-28T20:34:09.188Z,73.70
2018-07-28T20:36:39.340Z,73.70
2018-07-28T20:39:10.746Z,75.20
2018-07-28T20:41:45.442Z,74.60
2018-07-28T20:44:21.085Z,75.20
2018-07-28T20:46:50.954Z,74.80
2018-07-28T20:49:21.053Z,75.10
2018-07-28T20:51:51.049Z,75.30
2018-07-28T20:54:21.049Z,74.10
2018-07-28T20:57:00.220Z,74.60
2018-07-28T20:59:30.039Z,75.40
2018-07-28T21:02:00.135Z,73.80
2018-07-28T21:04:30.017Z,74.00
2018-07-28T21:06:59.943Z,73.90
2018-07-28T21:09:35.591Z,74.00
2018-07-28T21:12:11.515Z,74.10
2018-07-28T21:14:41.452Z,73.90
2018-07-28T21:17:11.064Z,74.60
2018-07-28T21:19:40.608Z,75.70
2018-07-28T21:22:10.480Z,75.10
2018-07-28T21:24:47.507Z,74.60
2018-07-28T21:27:17.252Z,75.30
2018-07-28T21:29:47.252Z,72.60
2018-07-28T21:32:17.120Z,73.30
2018-07-28T21:34:46.899Z,73.30
2018-07-28T21:37:25.841Z,71.30
2018-07-28T21:39:56.072Z,71.20
2018-07-28T21:42:31.539Z,70.70
2018-07-28T21:45:01.402Z,70.70
2018-07-28T21:47:31.166Z,70.80
2018-07-28T21:50:07.010Z,69.90
2018-07-28T21:52:42.619Z,68.40
2018-07-28T21:55:12.393Z,67.80
2018-07-28T21:57:42.069Z,67.00
2018-07-28T22:00:12.147Z,67.40
2018-07-28T22:02:41.909Z,66.00
2018-07-28T22:05:11.641Z,67.90
2018-07-28T22:07:51.429Z,67.00
2018-07-28T22:10:31.111Z,66.90
2018-07-28T22:13:01.027Z,68.20
2018-07-28T22:15:31.022Z,66.60
2018-07-28T22:18:00.596Z,65.10
2018-07-28T22:20:30.206Z,66.50
2018-07-28T22:23:08.787Z,66.80
2018-07-28T22:25:38.372Z,67.60
2018-07-28T22:28:07.932Z,67.50
2018-07-28T22:30:38.869Z,67.10
2018-07-28T22:33:13.705Z,68.00
2018-07-28T22:35:51.617Z,67.00
2018-07-28T22:38:21.444Z,67.10
2018-07-28T22:40:50.956Z,66.20
2018-07-28T22:43:25.143Z,63.90
2018-07-28T22:46:01.711Z,63.70
2018-07-28T22:48:36.244Z,65.20
2018-07-28T22:51:07.180Z,63.60
2018-07-28T22:53:38.407Z,64.80
2018-07-28T22:56:13.333Z,64.60
2018-07-28T22:58:44.210Z,65.80
2018-07-28T23:01:14.380Z,65.10
2018-07-28T23:03:44.082Z,66.90
2018-07-28T23:06:13.875Z,64.20
2018-07-28T23:08:55.124Z,65.10
2018-07-28T23:11:25.016Z,64.50
2018-07-28T23:13:54.734Z,64.00
2018-07-28T23:16:24.272Z,64.40
2018-07-28T23:19:03.127Z,64.00
2018-07-28T23:21:33.105Z,64.10
2018-07-28T23:24:13.800Z,63.50
2018-07-28T23:26:43.648Z,64.40
2018-07-28T23:29:24.636Z,64.90
2018-07-28T23:31:54.502Z,64.70
2018-07-28T23:34:24.007Z,64.90
2018-07-28T23:39:32.220Z,64.30
2018-07-28T23:42:01.894Z,65.50
2018-07-28T23:44:37.840Z,65.40
2018-07-28T23:47:07.403Z,67.30
2018-07-28T23:49:37.324Z,65.70
2018-07-28T23:52:11.355Z,65.90
2018-07-28T23:54:48.156Z,66.10
2018-07-28T23:57:29.421Z,66.10
2018-07-28T23:59:58.986Z,64.60
